sensor_id;sensor_type;location;lat;lon;timestamp;P1;durP1;ratioP1;P2;durP2;ratioP2
21472;SDS011;10898;48.072;11.682;2022-08-21T00:00:23;4.33;;;3.90;;
21472;SDS011;10898;48.072;11.682;2022-08-21T00:02:26;3.40;;;2.97;;
21472;SDS011;10898;48.072;11.682;2022-08-21T00:04:29;9.95;;;3.65;;
21472;SDS011;10898;48.072;11.682;2022-08-21T00:06:31;6.75;;;3.40;;
21472;SDS011;10898;48.072;11.682;2022-08-21T00:08:34;5.05;;;3.28;;
21472;SDS011;10898;48.072;11.682;2022-08-21T00:10:36;4.43;;;3.38;;
21472;SDS011;10898;48.072;11.682;2022-08-21T00:12:40;4.05;;;3.45;;
21472;SDS011;10898;48.072;11.682;2022-08-21T00:14:43;3.85;;;3.38;;
21472;SDS011;10898;48.072;11.682;2022-08-21T00:16:46;3.53;;;3.20;;
21472;SDS011;10898;48.072;11.682;2022-08-21T00:18:48;3.40;;;3.10;;
21472;SDS011;10898;48.072;11.682;2022-08-21T00:20:50;6.15;;;3.88;;
21472;SDS011;10898;48.072;11.682;2022-08-21T00:22:52;4.47;;;3.10;;
21472;SDS011;10898;48.072;11.682;2022-08-21T00:24:57;4.60;;;3.10;;
21472;SDS011;10898;48.072;11.682;2022-08-21T00:26:59;4.22;;;2.92;;
21472;SDS011;10898;48.072;11.682;2022-08-21T00:29:01;4.60;;;3.30;;
21472;SDS011;10898;48.072;11.682;2022-08-21T00:31:02;5.70;;;3.00;;
21472;SDS011;10898;48.072;11.682;2022-08-21T00:33:05;3.38;;;2.78;;
21472;SDS011;10898;48.072;11.682;2022-08-21T00:37:12;3.90;;;2.80;;
21472;SDS011;10898;48.072;11.682;2022-08-21T00:39:14;3.60;;;2.67;;
21472;SDS011;10898;48.072;11.682;2022-08-21T00:41:16;4.28;;;2.83;;
21472;SDS011;10898;48.072;11.682;2022-08-21T00:43:38;3.95;;;3.15;;
21472;SDS011;10898;48.072;11.682;2022-08-21T00:45:41;3.65;;;2.67;;
21472;SDS011;10898;48.072;11.682;2022-08-21T00:47:43;3.17;;;2.88;;
21472;SDS011;10898;48.072;11.682;2022-08-21T00:49:44;2.80;;;2.60;;
21472;SDS011;10898;48.072;11.682;2022-08-21T00:51:51;8.00;;;3.03;;
21472;SDS011;10898;48.072;11.682;2022-08-21T00:53:57;2.85;;;2.65;;
21472;SDS011;10898;48.072;11.682;2022-08-21T00:56:03;3.00;;;2.60;;
21472;SDS011;10898;48.072;11.682;2022-08-21T00:58:10;5.75;;;2.70;;
21472;SDS011;10898;48.072;11.682;2022-08-21T01:00:19;6.20;;;2.85;;
21472;SDS011;10898;48.072;11.682;2022-08-21T01:02:23;3.13;;;2.20;;
21472;SDS011;10898;48.072;11.682;2022-08-21T01:04:25;5.05;;;2.78;;
21472;SDS011;10898;48.072;11.682;2022-08-21T01:06:27;5.30;;;2.95;;
21472;SDS011;10898;48.072;11.682;2022-08-21T01:08:29;2.72;;;2.53;;
21472;SDS011;10898;48.072;11.682;2022-08-21T01:10:33;2.72;;;2.30;;
21472;SDS011;10898;48.072;11.682;2022-08-21T01:12:37;2.50;;;2.30;;
21472;SDS011;10898;48.072;11.682;2022-08-21T01:14:41;2.30;;;2.10;;
21472;SDS011;10898;48.072;11.682;2022-08-21T01:16:47;2.40;;;2.20;;
21472;SDS011;10898;48.072;11.682;2022-08-21T01:18:51;4.13;;;2.53;;
21472;SDS011;10898;48.072;11.682;2022-08-21T01:21:07;2.22;;;1.98;;
21472;SDS011;10898;48.072;11.682;2022-08-21T01:23:13;3.03;;;2.47;;
21472;SDS011;10898;48.072;11.682;2022-08-21T01:25:16;2.75;;;2.55;;
21472;SDS011;10898;48.072;11.682;2022-08-21T01:27:20;2.58;;;2.38;;
21472;SDS011;10898;48.072;11.682;2022-08-21T01:31:31;2.60;;;2.15;;
21472;SDS011;10898;48.072;11.682;2022-08-21T01:33:34;2.28;;;1.85;;
21472;SDS011;10898;48.072;11.682;2022-08-21T01:35:36;3.33;;;2.25;;
21472;SDS011;10898;48.072;11.682;2022-08-21T01:37:39;2.38;;;2.10;;
21472;SDS011;10898;48.072;11.682;2022-08-21T01:39:42;2.25;;;2.05;;
21472;SDS011;10898;48.072;11.682;2022-08-21T01:41:45;2.67;;;2.25;;
21472;SDS011;10898;48.072;11.682;2022-08-21T01:43:47;3.50;;;2.08;;
21472;SDS011;10898;48.072;11.682;2022-08-21T01:45:49;4.45;;;2.15;;
21472;SDS011;10898;48.072;11.682;2022-08-21T01:47:52;3.55;;;2.13;;
21472;SDS011;10898;48.072;11.682;2022-08-21T01:49:54;2.40;;;1.92;;
21472;SDS011;10898;48.072;11.682;2022-08-21T01:51:56;2.88;;;2.22;;
21472;SDS011;10898;48.072;11.682;2022-08-21T01:53:58;2.43;;;2.23;;
21472;SDS011;10898;48.072;11.682;2022-08-21T01:56:00;3.13;;;1.88;;
21472;SDS011;10898;48.072;11.682;2022-08-21T01:58:03;3.03;;;2.15;;
21472;SDS011;10898;48.072;11.682;2022-08-21T02:00:06;2.30;;;2.10;;
21472;SDS011;10898;48.072;11.682;2022-08-21T02:02:11;2.25;;;1.85;;
21472;SDS011;10898;48.072;11.682;2022-08-21T02:04:13;3.28;;;2.33;;
21472;SDS011;10898;48.072;11.682;2022-08-21T02:06:15;4.13;;;2.17;;
21472;SDS011;10898;48.072;11.682;2022-08-21T02:08:19;2.50;;;2.30;;
21472;SDS011;10898;48.072;11.682;2022-08-21T02:10:26;2.00;;;1.80;;
21472;SDS011;10898;48.072;11.682;2022-08-21T02:12:31;3.05;;;1.90;;
21472;SDS011;10898;48.072;11.682;2022-08-21T02:14:33;5.72;;;2.35;;
21472;SDS011;10898;48.072;11.682;2022-08-21T02:16:35;3.00;;;2.47;;
21472;SDS011;10898;48.072;11.682;2022-08-21T02:18:37;2.38;;;2.17;;
21472;SDS011;10898;48.072;11.682;2022-08-21T02:20:40;2.33;;;2.05;;
21472;SDS011;10898;48.072;11.682;2022-08-21T02:22:56;2.05;;;1.95;;
21472;SDS011;10898;48.072;11.682;2022-08-21T02:24:58;3.33;;;2.25;;
21472;SDS011;10898;48.072;11.682;2022-08-21T02:27:00;2.85;;;1.85;;
21472;SDS011;10898;48.072;11.682;2022-08-21T02:29:02;3.13;;;1.90;;
21472;SDS011;10898;48.072;11.682;2022-08-21T02:31:05;3.10;;;1.92;;
21472;SDS011;10898;48.072;11.682;2022-08-21T02:33:08;3.20;;;2.10;;
21472;SDS011;10898;48.072;11.682;2022-08-21T02:35:11;2.05;;;1.75;;
21472;SDS011;10898;48.072;11.682;2022-08-21T02:37:13;3.95;;;1.85;;
21472;SDS011;10898;48.072;11.682;2022-08-21T02:39:15;2.00;;;1.90;;
21472;SDS011;10898;48.072;11.682;2022-08-21T02:41:27;2.00;;;1.90;;
21472;SDS011;10898;48.072;11.682;2022-08-21T02:43:29;3.20;;;1.93;;
21472;SDS011;10898;48.072;11.682;2022-08-21T02:45:30;2.30;;;2.10;;
21472;SDS011;10898;48.072;11.682;2022-08-21T02:47:33;3.67;;;2.33;;
21472;SDS011;10898;48.072;11.682;2022-08-21T02:49:35;3.63;;;2.00;;
21472;SDS011;10898;48.072;11.682;2022-08-21T02:51:36;3.07;;;2.03;;
21472;SDS011;10898;48.072;11.682;2022-08-21T02:53:39;4.63;;;2.58;;
21472;SDS011;10898;48.072;11.682;2022-08-21T02:55:42;1.85;;;1.75;;
21472;SDS011;10898;48.072;11.682;2022-08-21T02:57:46;2.72;;;2.03;;
21472;SDS011;10898;48.072;11.682;2022-08-21T03:01:50;2.38;;;2.10;;
21472;SDS011;10898;48.072;11.682;2022-08-21T03:03:52;2.10;;;1.92;;
21472;SDS011;10898;48.072;11.682;2022-08-21T03:05:54;2.38;;;2.08;;
21472;SDS011;10898;48.072;11.682;2022-08-21T03:07:57;4.00;;;2.22;;
21472;SDS011;10898;48.072;11.682;2022-08-21T03:10:00;3.63;;;2.10;;
21472;SDS011;10898;48.072;11.682;2022-08-21T03:12:02;2.55;;;2.35;;
21472;SDS011;10898;48.072;11.682;2022-08-21T03:14:04;2.38;;;2.17;;
21472;SDS011;10898;48.072;11.682;2022-08-21T03:16:06;2.30;;;2.10;;
21472;SDS011;10898;48.072;11.682;2022-08-21T03:18:11;2.97;;;2.45;;
21472;SDS011;10898;48.072;11.682;2022-08-21T03:20:14;2.80;;;2.20;;
21472;SDS011;10898;48.072;11.682;2022-08-21T03:22:18;4.18;;;2.20;;
21472;SDS011;10898;48.072;11.682;2022-08-21T03:24:20;6.10;;;2.40;;
21472;SDS011;10898;48.072;11.682;2022-08-21T03:26:23;2.30;;;2.10;;
21472;SDS011;10898;48.072;11.682;2022-08-21T03:28:25;2.70;;;2.50;;
21472;SDS011;10898;48.072;11.682;2022-08-21T03:30:27;2.33;;;2.13;;
21472;SDS011;10898;48.072;11.682;2022-08-21T03:32:29;1.92;;;1.83;;
21472;SDS011;10898;48.072;11.682;2022-08-21T03:34:32;3.20;;;2.17;;
21472;SDS011;10898;48.072;11.682;2022-08-21T03:36:34;4.38;;;2.30;;
21472;SDS011;10898;48.072;11.682;2022-08-21T03:38:36;2.40;;;2.25;;
21472;SDS011;10898;48.072;11.682;2022-08-21T03:40:39;2.28;;;2.15;;
21472;SDS011;10898;48.072;11.682;2022-08-21T03:42:42;2.28;;;2.08;;
21472;SDS011;10898;48.072;11.682;2022-08-21T03:44:46;2.40;;;2.20;;
21472;SDS011;10898;48.072;11.682;2022-08-21T03:46:48;2.72;;;2.53;;
21472;SDS011;10898;48.072;11.682;2022-08-21T03:48:50;3.08;;;2.10;;
21472;SDS011;10898;48.072;11.682;2022-08-21T03:50:53;3.30;;;2.00;;
21472;SDS011;10898;48.072;11.682;2022-08-21T03:52:55;2.87;;;2.10;;
21472;SDS011;10898;48.072;11.682;2022-08-21T03:54:57;2.60;;;2.30;;
21472;SDS011;10898;48.072;11.682;2022-08-21T03:56:59;3.30;;;2.22;;
21472;SDS011;10898;48.072;11.682;2022-08-21T03:59:02;4.65;;;2.15;;
21472;SDS011;10898;48.072;11.682;2022-08-21T04:01:04;2.22;;;2.03;;
21472;SDS011;10898;48.072;11.682;2022-08-21T04:03:07;3.35;;;2.20;;
21472;SDS011;10898;48.072;11.682;2022-08-21T04:05:10;2.50;;;2.17;;
21472;SDS011;10898;48.072;11.682;2022-08-21T04:07:12;2.65;;;2.40;;
21472;SDS011;10898;48.072;11.682;2022-08-21T04:09:14;7.53;;;2.90;;
21472;SDS011;10898;48.072;11.682;2022-08-21T04:11:16;5.18;;;2.95;;
21472;SDS011;10898;48.072;11.682;2022-08-21T04:13:18;3.17;;;2.87;;
21472;SDS011;10898;48.072;11.682;2022-08-21T04:15:21;6.38;;;2.80;;
21472;SDS011;10898;48.072;11.682;2022-08-21T04:17:24;2.72;;;2.53;;
21472;SDS011;10898;48.072;11.682;2022-08-21T04:19:26;5.80;;;3.63;;
21472;SDS011;10898;48.072;11.682;2022-08-21T04:21:28;7.72;;;4.07;;
21472;SDS011;10898;48.072;11.682;2022-08-21T04:23:30;7.25;;;4.18;;
21472;SDS011;10898;48.072;11.682;2022-08-21T04:25:32;6.90;;;5.40;;
21472;SDS011;10898;48.072;11.682;2022-08-21T04:27:34;6.63;;;5.47;;
21472;SDS011;10898;48.072;11.682;2022-08-21T04:29:36;8.17;;;6.27;;
21472;SDS011;10898;48.072;11.682;2022-08-21T04:31:40;14.68;;;8.30;;
21472;SDS011;10898;48.072;11.682;2022-08-21T04:33:42;13.20;;;10.10;;
21472;SDS011;10898;48.072;11.682;2022-08-21T04:35:44;12.30;;;9.18;;
21472;SDS011;10898;48.072;11.682;2022-08-21T04:37:46;17.02;;;11.23;;
21472;SDS011;10898;48.072;11.682;2022-08-21T04:39:48;11.90;;;10.60;;
21472;SDS011;10898;48.072;11.682;2022-08-21T04:41:53;9.07;;;8.02;;
21472;SDS011;10898;48.072;11.682;2022-08-21T04:43:55;8.18;;;6.78;;
21472;SDS011;10898;48.072;11.682;2022-08-21T04:45:57;7.83;;;6.10;;
21472;SDS011;10898;48.072;11.682;2022-08-21T04:48:02;6.15;;;5.57;;
21472;SDS011;10898;48.072;11.682;2022-08-21T04:50:10;5.68;;;5.18;;
21472;SDS011;10898;48.072;11.682;2022-08-21T04:52:13;5.68;;;5.07;;
21472;SDS011;10898;48.072;11.682;2022-08-21T04:54:19;5.85;;;5.00;;
21472;SDS011;10898;48.072;11.682;2022-08-21T04:58:29;3.65;;;3.35;;
21472;SDS011;10898;48.072;11.682;2022-08-21T05:00:34;3.25;;;3.05;;
21472;SDS011;10898;48.072;11.682;2022-08-21T05:02:36;3.15;;;2.83;;
21472;SDS011;10898;48.072;11.682;2022-08-21T05:04:41;3.33;;;2.65;;
21472;SDS011;10898;48.072;11.682;2022-08-21T05:06:46;4.40;;;3.47;;
21472;SDS011;10898;48.072;11.682;2022-08-21T05:08:50;2.63;;;2.42;;
21472;SDS011;10898;48.072;11.682;2022-08-21T05:11:02;4.75;;;2.58;;
21472;SDS011;10898;48.072;11.682;2022-08-21T05:13:05;3.15;;;2.33;;
21472;SDS011;10898;48.072;11.682;2022-08-21T05:15:08;4.55;;;2.55;;
21472;SDS011;10898;48.072;11.682;2022-08-21T05:17:13;3.15;;;2.47;;
21472;SDS011;10898;48.072;11.682;2022-08-21T05:19:15;3.93;;;2.80;;
21472;SDS011;10898;48.072;11.682;2022-08-21T05:21:17;3.37;;;2.53;;
21472;SDS011;10898;48.072;11.682;2022-08-21T05:23:19;2.58;;;2.30;;
21472;SDS011;10898;48.072;11.682;2022-08-21T05:25:21;2.72;;;2.50;;
21472;SDS011;10898;48.072;11.682;2022-08-21T05:27:24;3.38;;;3.05;;
21472;SDS011;10898;48.072;11.682;2022-08-21T05:29:27;3.13;;;2.78;;
21472;SDS011;10898;48.072;11.682;2022-08-21T05:31:32;2.67;;;2.40;;
21472;SDS011;10898;48.072;11.682;2022-08-21T05:33:34;3.63;;;2.22;;
21472;SDS011;10898;48.072;11.682;2022-08-21T05:35:40;3.03;;;2.25;;
21472;SDS011;10898;48.072;11.682;2022-08-21T05:37:42;3.28;;;2.75;;
21472;SDS011;10898;48.072;11.682;2022-08-21T05:39:44;3.67;;;2.42;;
21472;SDS011;10898;48.072;11.682;2022-08-21T05:42:06;3.08;;;2.75;;
21472;SDS011;10898;48.072;11.682;2022-08-21T05:44:08;4.80;;;2.67;;
21472;SDS011;10898;48.072;11.682;2022-08-21T05:46:11;3.53;;;2.55;;
21472;SDS011;10898;48.072;11.682;2022-08-21T05:48:15;2.45;;;2.10;;
21472;SDS011;10898;48.072;11.682;2022-08-21T05:50:19;2.50;;;2.30;;
21472;SDS011;10898;48.072;11.682;2022-08-21T05:52:21;3.40;;;2.15;;
21472;SDS011;10898;48.072;11.682;2022-08-21T05:54:23;2.40;;;2.30;;
21472;SDS011;10898;48.072;11.682;2022-08-21T05:56:25;2.23;;;2.13;;
21472;SDS011;10898;48.072;11.682;2022-08-21T05:58:27;3.27;;;2.60;;
21472;SDS011;10898;48.072;11.682;2022-08-21T06:00:29;5.47;;;2.60;;
21472;SDS011;10898;48.072;11.682;2022-08-21T06:02:31;2.15;;;2.05;;
21472;SDS011;10898;48.072;11.682;2022-08-21T06:04:37;5.40;;;2.10;;
21472;SDS011;10898;48.072;11.682;2022-08-21T06:06:39;2.47;;;2.28;;
21472;SDS011;10898;48.072;11.682;2022-08-21T06:08:41;3.70;;;2.27;;
21472;SDS011;10898;48.072;11.682;2022-08-21T06:10:44;4.30;;;1.95;;
21472;SDS011;10898;48.072;11.682;2022-08-21T06:12:46;1.92;;;1.83;;
21472;SDS011;10898;48.072;11.682;2022-08-21T06:14:54;2.47;;;2.28;;
21472;SDS011;10898;48.072;11.682;2022-08-21T06:17:01;3.47;;;2.10;;
21472;SDS011;10898;48.072;11.682;2022-08-21T06:19:04;2.63;;;2.10;;
21472;SDS011;10898;48.072;11.682;2022-08-21T06:21:06;4.10;;;2.72;;
21472;SDS011;10898;48.072;11.682;2022-08-21T06:23:09;3.15;;;2.40;;
21472;SDS011;10898;48.072;11.682;2022-08-21T06:25:11;3.85;;;2.35;;
21472;SDS011;10898;48.072;11.682;2022-08-21T06:27:13;2.40;;;2.20;;
21472;SDS011;10898;48.072;11.682;2022-08-21T06:29:16;3.90;;;2.78;;
21472;SDS011;10898;48.072;11.682;2022-08-21T06:31:22;3.17;;;2.30;;
21472;SDS011;10898;48.072;11.682;2022-08-21T06:33:25;3.03;;;2.50;;
21472;SDS011;10898;48.072;11.682;2022-08-21T06:35:33;2.30;;;2.10;;
21472;SDS011;10898;48.072;11.682;2022-08-21T06:37:35;2.92;;;2.17;;
21472;SDS011;10898;48.072;11.682;2022-08-21T06:39:37;3.30;;;1.98;;
21472;SDS011;10898;48.072;11.682;2022-08-21T06:41:45;3.45;;;2.70;;
21472;SDS011;10898;48.072;11.682;2022-08-21T06:43:47;3.83;;;2.55;;
21472;SDS011;10898;48.072;11.682;2022-08-21T06:45:50;2.92;;;2.63;;
21472;SDS011;10898;48.072;11.682;2022-08-21T06:47:52;3.28;;;2.20;;
21472;SDS011;10898;48.072;11.682;2022-08-21T06:49:54;2.58;;;2.20;;
21472;SDS011;10898;48.072;11.682;2022-08-21T06:51:55;4.75;;;2.60;;
21472;SDS011;10898;48.072;11.682;2022-08-21T06:53:57;2.40;;;2.20;;
21472;SDS011;10898;48.072;11.682;2022-08-21T06:55:59;6.72;;;2.65;;
21472;SDS011;10898;48.072;11.682;2022-08-21T06:58:01;2.90;;;2.17;;
21472;SDS011;10898;48.072;11.682;2022-08-21T07:00:05;2.33;;;2.13;;
21472;SDS011;10898;48.072;11.682;2022-08-21T07:02:08;2.50;;;2.30;;
21472;SDS011;10898;48.072;11.682;2022-08-21T07:04:10;5.43;;;2.05;;
21472;SDS011;10898;48.072;11.682;2022-08-21T07:06:12;2.55;;;2.00;;
21472;SDS011;10898;48.072;11.682;2022-08-21T07:08:14;2.33;;;2.17;;
21472;SDS011;10898;48.072;11.682;2022-08-21T07:10:15;3.08;;;2.17;;
21472;SDS011;10898;48.072;11.682;2022-08-21T07:12:23;2.47;;;2.15;;
21472;SDS011;10898;48.072;11.682;2022-08-21T07:14:24;3.15;;;2.42;;
21472;SDS011;10898;48.072;11.682;2022-08-21T07:16:26;3.57;;;2.20;;
21472;SDS011;10898;48.072;11.682;2022-08-21T07:18:28;5.53;;;2.40;;
21472;SDS011;10898;48.072;11.682;2022-08-21T07:20:30;3.85;;;2.65;;
21472;SDS011;10898;48.072;11.682;2022-08-21T07:22:32;2.40;;;1.90;;
21472;SDS011;10898;48.072;11.682;2022-08-21T07:24:37;3.45;;;2.20;;
21472;SDS011;10898;48.072;11.682;2022-08-21T07:26:38;2.95;;;2.03;;
21472;SDS011;10898;48.072;11.682;2022-08-21T07:28:41;4.13;;;2.40;;
21472;SDS011;10898;48.072;11.682;2022-08-21T07:30:43;2.63;;;2.15;;
21472;SDS011;10898;48.072;11.682;2022-08-21T07:32:45;3.95;;;2.45;;
21472;SDS011;10898;48.072;11.682;2022-08-21T07:34:46;2.58;;;2.33;;
21472;SDS011;10898;48.072;11.682;2022-08-21T07:36:48;3.00;;;2.70;;
21472;SDS011;10898;48.072;11.682;2022-08-21T07:38:50;4.18;;;2.92;;
21472;SDS011;10898;48.072;11.682;2022-08-21T07:44:58;4.40;;;2.55;;
21472;SDS011;10898;48.072;11.682;2022-08-21T07:47:00;2.97;;;2.53;;
21472;SDS011;10898;48.072;11.682;2022-08-21T07:49:02;4.25;;;2.67;;
21472;SDS011;10898;48.072;11.682;2022-08-21T07:51:08;3.93;;;2.97;;
21472;SDS011;10898;48.072;11.682;2022-08-21T07:53:12;4.15;;;2.83;;
21472;SDS011;10898;48.072;11.682;2022-08-21T07:55:16;3.40;;;3.10;;
21472;SDS011;10898;48.072;11.682;2022-08-21T07:57:19;4.00;;;2.60;;
21472;SDS011;10898;48.072;11.682;2022-08-21T07:59:21;3.45;;;3.15;;
21472;SDS011;10898;48.072;11.682;2022-08-21T08:01:23;4.68;;;2.88;;
21472;SDS011;10898;48.072;11.682;2022-08-21T08:03:26;5.00;;;3.28;;
21472;SDS011;10898;48.072;11.682;2022-08-21T08:05:29;4.60;;;3.00;;
21472;SDS011;10898;48.072;11.682;2022-08-21T08:07:33;3.72;;;3.00;;
21472;SDS011;10898;48.072;11.682;2022-08-21T08:09:35;3.45;;;3.08;;
21472;SDS011;10898;48.072;11.682;2022-08-21T08:11:37;3.20;;;2.90;;
21472;SDS011;10898;48.072;11.682;2022-08-21T08:13:43;3.42;;;3.03;;
21472;SDS011;10898;48.072;11.682;2022-08-21T08:15:46;3.60;;;3.30;;
21472;SDS011;10898;48.072;11.682;2022-08-21T08:17:48;6.40;;;3.08;;
21472;SDS011;10898;48.072;11.682;2022-08-21T08:19:50;2.92;;;2.72;;
21472;SDS011;10898;48.072;11.682;2022-08-21T08:21:52;4.35;;;2.95;;
21472;SDS011;10898;48.072;11.682;2022-08-21T08:23:54;6.13;;;3.57;;
21472;SDS011;10898;48.072;11.682;2022-08-21T08:25:56;6.50;;;2.80;;
21472;SDS011;10898;48.072;11.682;2022-08-21T08:27:58;3.63;;;3.30;;
21472;SDS011;10898;48.072;11.682;2022-08-21T08:30:00;3.75;;;3.38;;
21472;SDS011;10898;48.072;11.682;2022-08-21T08:32:03;3.90;;;2.78;;
21472;SDS011;10898;48.072;11.682;2022-08-21T08:34:08;3.75;;;3.20;;
21472;SDS011;10898;48.072;11.682;2022-08-21T08:36:30;3.40;;;3.10;;
21472;SDS011;10898;48.072;11.682;2022-08-21T08:38:35;5.65;;;3.20;;
21472;SDS011;10898;48.072;11.682;2022-08-21T08:40:39;3.80;;;3.13;;
21472;SDS011;10898;48.072;11.682;2022-08-21T08:42:47;4.97;;;3.50;;
21472;SDS011;10898;48.072;11.682;2022-08-21T08:44:48;4.20;;;3.33;;
21472;SDS011;10898;48.072;11.682;2022-08-21T08:46:56;3.53;;;3.22;;
21472;SDS011;10898;48.072;11.682;2022-08-21T08:49:02;3.75;;;3.30;;
21472;SDS011;10898;48.072;11.682;2022-08-21T08:53:58;3.33;;;3.00;;
21472;SDS011;10898;48.072;11.682;2022-08-21T08:56:03;4.40;;;2.90;;
21472;SDS011;10898;48.072;11.682;2022-08-21T08:58:08;3.70;;;3.20;;
21472;SDS011;10898;48.072;11.682;2022-08-21T09:00:19;3.45;;;3.15;;
21472;SDS011;10898;48.072;11.682;2022-08-21T09:02:23;4.55;;;3.05;;
21472;SDS011;10898;48.072;11.682;2022-08-21T09:04:27;3.53;;;3.22;;
21472;SDS011;10898;48.072;11.682;2022-08-21T09:06:44;3.45;;;3.13;;
21472;SDS011;10898;48.072;11.682;2022-08-21T09:09:09;3.72;;;2.75;;
21472;SDS011;10898;48.072;11.682;2022-08-21T09:18:38;5.00;;;3.20;;
21472;SDS011;10898;48.072;11.682;2022-08-21T09:28:13;3.60;;;2.92;;
21472;SDS011;10898;48.072;11.682;2022-08-21T09:32:19;3.97;;;3.35;;
21472;SDS011;10898;48.072;11.682;2022-08-21T09:34:38;3.28;;;2.80;;
21472;SDS011;10898;48.072;11.682;2022-08-21T09:36:49;5.32;;;2.88;;
21472;SDS011;10898;48.072;11.682;2022-08-21T09:38:53;3.37;;;2.63;;
21472;SDS011;10898;48.072;11.682;2022-08-21T09:40:58;3.10;;;2.70;;
21472;SDS011;10898;48.072;11.682;2022-08-21T09:45:14;4.80;;;3.25;;
21472;SDS011;10898;48.072;11.682;2022-08-21T09:47:19;3.78;;;3.15;;
21472;SDS011;10898;48.072;11.682;2022-08-21T09:49:30;4.07;;;3.40;;
21472;SDS011;10898;48.072;11.682;2022-08-21T09:51:36;3.10;;;2.85;;
21472;SDS011;10898;48.072;11.682;2022-08-21T09:53:38;3.35;;;3.05;;
21472;SDS011;10898;48.072;11.682;2022-08-21T09:55:58;3.80;;;3.13;;
21472;SDS011;10898;48.072;11.682;2022-08-21T09:58:30;4.00;;;3.63;;
21472;SDS011;10898;48.072;11.682;2022-08-21T10:00:35;3.97;;;3.40;;
21472;SDS011;10898;48.072;11.682;2022-08-21T10:04:39;6.18;;;3.47;;
21472;SDS011;10898;48.072;11.682;2022-08-21T10:06:46;4.18;;;3.15;;
21472;SDS011;10898;48.072;11.682;2022-08-21T10:08:48;4.25;;;3.13;;
21472;SDS011;10898;48.072;11.682;2022-08-21T10:10:51;4.30;;;2.97;;
21472;SDS011;10898;48.072;11.682;2022-08-21T10:13:00;3.38;;;3.10;;
21472;SDS011;10898;48.072;11.682;2022-08-21T10:17:42;3.22;;;2.95;;
21472;SDS011;10898;48.072;11.682;2022-08-21T10:22:16;3.03;;;2.60;;
21472;SDS011;10898;48.072;11.682;2022-08-21T10:24:30;3.35;;;2.65;;
21472;SDS011;10898;48.072;11.682;2022-08-21T10:26:47;5.32;;;2.80;;
21472;SDS011;10898;48.072;11.682;2022-08-21T10:31:31;3.47;;;3.17;;
21472;SDS011;10898;48.072;11.682;2022-08-21T10:33:56;5.15;;;2.90;;
21472;SDS011;10898;48.072;11.682;2022-08-21T10:36:15;4.07;;;2.47;;
21472;SDS011;10898;48.072;11.682;2022-08-21T10:43:31;4.80;;;2.53;;
21472;SDS011;10898;48.072;11.682;2022-08-21T10:48:24;3.97;;;2.75;;
21472;SDS011;10898;48.072;11.682;2022-08-21T10:50:38;2.92;;;2.42;;
21472;SDS011;10898;48.072;11.682;2022-08-21T10:55:09;2.30;;;2.10;;
21472;SDS011;10898;48.072;11.682;2022-08-21T10:57:23;3.10;;;2.03;;
21472;SDS011;10898;48.072;11.682;2022-08-21T10:59:36;2.75;;;2.55;;
21472;SDS011;10898;48.072;11.682;2022-08-21T11:02:07;2.63;;;2.42;;
21472;SDS011;10898;48.072;11.682;2022-08-21T11:04:19;2.70;;;2.25;;
21472;SDS011;10898;48.072;11.682;2022-08-21T11:06:34;2.63;;;2.08;;
21472;SDS011;10898;48.072;11.682;2022-08-21T11:08:44;5.10;;;2.70;;
21472;SDS011;10898;48.072;11.682;2022-08-21T11:10:52;3.85;;;2.30;;
21472;SDS011;10898;48.072;11.682;2022-08-21T11:13:21;3.70;;;2.50;;
21472;SDS011;10898;48.072;11.682;2022-08-21T11:18:10;3.92;;;2.63;;
21472;SDS011;10898;48.072;11.682;2022-08-21T11:20:38;2.25;;;2.05;;
21472;SDS011;10898;48.072;11.682;2022-08-21T11:22:56;2.60;;;2.40;;
21472;SDS011;10898;48.072;11.682;2022-08-21T11:27:26;2.67;;;2.35;;
21472;SDS011;10898;48.072;11.682;2022-08-21T11:29:49;4.03;;;2.38;;
21472;SDS011;10898;48.072;11.682;2022-08-21T11:37:02;2.67;;;2.28;;
21472;SDS011;10898;48.072;11.682;2022-08-21T11:39:12;3.33;;;2.08;;
21472;SDS011;10898;48.072;11.682;2022-08-21T11:41:40;2.80;;;2.47;;
21472;SDS011;10898;48.072;11.682;2022-08-21T11:44:02;2.33;;;1.88;;
21472;SDS011;10898;48.072;11.682;2022-08-21T11:51:41;2.55;;;2.33;;
21472;SDS011;10898;48.072;11.682;2022-08-21T11:53:56;3.22;;;2.42;;
21472;SDS011;10898;48.072;11.682;2022-08-21T11:56:23;3.13;;;2.20;;
21472;SDS011;10898;48.072;11.682;2022-08-21T11:58:35;2.45;;;2.25;;
21472;SDS011;10898;48.072;11.682;2022-08-21T12:00:52;2.67;;;2.47;;
21472;SDS011;10898;48.072;11.682;2022-08-21T12:03:14;3.33;;;2.47;;
21472;SDS011;10898;48.072;11.682;2022-08-21T12:05:33;3.08;;;2.38;;
21472;SDS011;10898;48.072;11.682;2022-08-21T12:07:40;2.72;;;2.42;;
21472;SDS011;10898;48.072;11.682;2022-08-21T12:09:54;5.43;;;2.60;;
21472;SDS011;10898;48.072;11.682;2022-08-21T12:14:34;2.53;;;2.33;;
21472;SDS011;10898;48.072;11.682;2022-08-21T12:16:41;2.88;;;2.63;;
21472;SDS011;10898;48.072;11.682;2022-08-21T12:18:45;2.50;;;2.30;;
21472;SDS011;10898;48.072;11.682;2022-08-21T12:23:28;3.13;;;2.92;;
21472;SDS011;10898;48.072;11.682;2022-08-21T12:28:15;2.65;;;2.30;;
21472;SDS011;10898;48.072;11.682;2022-08-21T12:32:29;5.38;;;2.40;;
21472;SDS011;10898;48.072;11.682;2022-08-21T12:34:48;3.55;;;2.20;;
21472;SDS011;10898;48.072;11.682;2022-08-21T12:36:59;2.42;;;2.22;;
21472;SDS011;10898;48.072;11.682;2022-08-21T12:39:05;3.80;;;2.13;;
21472;SDS011;10898;48.072;11.682;2022-08-21T12:41:49;2.17;;;1.98;;
21472;SDS011;10898;48.072;11.682;2022-08-21T12:46:00;2.30;;;2.10;;
21472;SDS011;10898;48.072;11.682;2022-08-21T12:48:20;3.00;;;1.85;;
21472;SDS011;10898;48.072;11.682;2022-08-21T12:50:44;2.30;;;2.10;;
21472;SDS011;10898;48.072;11.682;2022-08-21T12:52:58;2.85;;;1.80;;
21472;SDS011;10898;48.072;11.682;2022-08-21T12:55:26;2.83;;;2.05;;
21472;SDS011;10898;48.072;11.682;2022-08-21T12:57:30;3.20;;;2.28;;
21472;SDS011;10898;48.072;11.682;2022-08-21T12:59:32;3.00;;;2.37;;
21472;SDS011;10898;48.072;11.682;2022-08-21T13:01:43;3.65;;;2.38;;
21472;SDS011;10898;48.072;11.682;2022-08-21T13:03:49;3.97;;;2.20;;
21472;SDS011;10898;48.072;11.682;2022-08-21T13:06:05;2.88;;;2.58;;
21472;SDS011;10898;48.072;11.682;2022-08-21T13:08:09;4.72;;;2.53;;
21472;SDS011;10898;48.072;11.682;2022-08-21T13:10:18;3.08;;;2.60;;
21472;SDS011;10898;48.072;11.682;2022-08-21T13:12:23;2.65;;;2.45;;
21472;SDS011;10898;48.072;11.682;2022-08-21T13:14:36;3.08;;;2.40;;
21472;SDS011;10898;48.072;11.682;2022-08-21T13:16:46;2.70;;;2.50;;
21472;SDS011;10898;48.072;11.682;2022-08-21T13:23:18;4.40;;;2.33;;
21472;SDS011;10898;48.072;11.682;2022-08-21T13:25:27;2.67;;;2.47;;
21472;SDS011;10898;48.072;11.682;2022-08-21T13:27:30;3.08;;;2.53;;
21472;SDS011;10898;48.072;11.682;2022-08-21T13:29:33;2.27;;;2.07;;
21472;SDS011;10898;48.072;11.682;2022-08-21T13:31:39;2.53;;;2.33;;
21472;SDS011;10898;48.072;11.682;2022-08-21T13:33:43;2.95;;;2.65;;
21472;SDS011;10898;48.072;11.682;2022-08-21T13:35:57;2.60;;;2.40;;
21472;SDS011;10898;48.072;11.682;2022-08-21T13:38:03;2.67;;;2.47;;
21472;SDS011;10898;48.072;11.682;2022-08-21T13:40:07;3.22;;;2.28;;
21472;SDS011;10898;48.072;11.682;2022-08-21T13:42:19;3.28;;;2.40;;
21472;SDS011;10898;48.072;11.682;2022-08-21T13:46:29;2.33;;;2.10;;
21472;SDS011;10898;48.072;11.682;2022-08-21T13:48:34;3.75;;;2.10;;
21472;SDS011;10898;48.072;11.682;2022-08-21T13:50:37;2.20;;;2.00;;
21472;SDS011;10898;48.072;11.682;2022-08-21T13:52:47;2.38;;;2.22;;